createdAt,value
2023-03-27T00:00:26.301Z,98.50
2023-03-27T00:02:53.836Z,98.50
2023-03-27T00:05:21.201Z,98.50
2023-03-27T00:07:48.520Z,98.50
2023-03-27T00:10:16.635Z,98.50
2023-03-27T00:12:44.474Z,98.50
2023-03-27T00:15:18.870Z,98.50
2023-03-27T00:17:48.650Z,98.50
2023-03-27T00:20:17.390Z,98.50
2023-03-27T00:22:44.224Z,98.50
2023-03-27T00:25:11.494Z,98.50
2023-03-27T00:27:38.242Z,98.50
2023-03-27T00:30:06.653Z,98.50
2023-03-27T00:32:33.909Z,98.50
2023-03-27T00:35:00.724Z,98.50
2023-03-27T00:37:27.390Z,98.50
2023-03-27T00:39:54.122Z,98.50
2023-03-27T00:42:23.086Z,98.50
2023-03-27T00:44:51.635Z,98.50
2023-03-27T00:47:33.963Z,98.50
2023-03-27T00:50:06.558Z,98.50
2023-03-27T00:52:33.379Z,98.50
2023-03-27T00:55:06.032Z,98.50
2023-03-27T00:57:32.971Z,98.50
2023-03-27T01:00:01.634Z,98.50
2023-03-27T01:02:29.788Z,98.50
2023-03-27T01:04:57.722Z,98.50
2023-03-27T01:07:25.394Z,98.50
2023-03-27T01:09:52.499Z,98.50
2023-03-27T01:13:03.777Z,98.50
2023-03-27T01:15:56.883Z,98.50
2023-03-27T01:19:21.541Z,98.50
2023-03-27T01:22:25.304Z,98.50
2023-03-27T01:25:31.517Z,98.50
2023-03-27T01:28:18.748Z,98.50
2023-03-27T01:31:11.336Z,98.50
2023-03-27T01:34:00.336Z,98.50
2023-03-27T01:37:07.285Z,98.50
2023-03-27T01:39:40.367Z,98.50
2023-03-27T01:42:38.486Z,98.50
2023-03-27T01:45:20.022Z,98.50
2023-03-27T01:48:07.252Z,98.50
2023-03-27T01:50:42.422Z,98.50
2023-03-27T01:53:22.973Z,98.50
2023-03-27T01:56:02.531Z,98.50
2023-03-27T01:58:39.569Z,98.50
2023-03-27T02:01:09.898Z,98.50
2023-03-27T02:03:51.340Z,98.50
2023-03-27T02:09:28.112Z,98.50
2023-03-27T02:12:14.086Z,98.50
2023-03-27T02:14:56.925Z,98.50
2023-03-27T02:17:49.288Z,98.50
2023-03-27T02:20:17.937Z,98.50
2023-03-27T02:22:49.223Z,98.50
2023-03-27T02:25:40.468Z,98.50
2023-03-27T02:28:16.428Z,98.50
2023-03-27T02:31:33.102Z,98.50
2023-03-27T02:34:38.626Z,98.50
2023-03-27T02:37:46.729Z,98.50
2023-03-27T02:40:54.415Z,98.50
2023-03-27T02:43:32.644Z,98.50
2023-03-27T02:46:05.641Z,98.50
2023-03-27T02:48:49.463Z,98.50
2023-03-27T02:51:25.480Z,98.50
2023-03-27T02:54:24.958Z,98.50
2023-03-27T03:00:20.968Z,98.50
2023-03-27T03:03:43.761Z,98.50
2023-03-27T03:06:11.434Z,98.50
2023-03-27T03:08:39.343Z,98.50
2023-03-27T03:11:13.507Z,98.50
2023-03-27T03:13:41.489Z,98.50
2023-03-27T03:16:10.291Z,98.50
2023-03-27T03:18:37.380Z,98.50
2023-03-27T03:21:04.819Z,98.50
2023-03-27T03:26:16.939Z,98.50
2023-03-27T03:29:00.764Z,98.50
2023-03-27T03:31:44.627Z,98.50
2023-03-27T03:34:12.163Z,98.50
2023-03-27T03:36:43.064Z,98.50
2023-03-27T03:39:10.169Z,98.50
2023-03-27T03:41:37.301Z,98.50
2023-03-27T03:44:04.061Z,98.50
2023-03-27T03:46:31.506Z,98.50
2023-03-27T03:48:59.351Z,98.50
2023-03-27T03:51:27.126Z,98.50
2023-03-27T03:53:54.991Z,98.50
2023-03-27T03:56:21.954Z,98.50
2023-03-27T03:58:48.821Z,98.50
2023-03-27T04:01:20.767Z,98.50
2023-03-27T04:03:49.996Z,98.50
2023-03-27T04:06:25.610Z,98.50
2023-03-27T04:08:56.154Z,98.50
2023-03-27T04:11:23.422Z,98.50
2023-03-27T04:13:50.331Z,98.50
2023-03-27T04:16:17.334Z,98.50
2023-03-27T04:18:44.293Z,98.50
2023-03-27T04:21:15.028Z,98.50
2023-03-27T04:23:43.227Z,98.50
2023-03-27T04:26:12.575Z,98.50
2023-03-27T04:28:40.187Z,98.50
2023-03-27T04:31:10.589Z,98.50
2023-03-27T04:33:42.741Z,98.50
2023-03-27T04:36:15.783Z,98.50
2023-03-27T04:38:43.081Z,98.50
2023-03-27T04:41:10.120Z,98.50
2023-03-27T04:43:37.015Z,98.50
2023-03-27T04:46:07.823Z,98.50
2023-03-27T04:48:38.916Z,98.50
2023-03-27T04:51:07.061Z,98.50
2023-03-27T04:53:36.407Z,98.50
2023-03-27T04:56:04.082Z,98.50
2023-03-27T04:58:31.142Z,98.50
2023-03-27T05:00:58.225Z,98.50
2023-03-27T05:03:26.070Z,98.50
2023-03-27T05:05:53.810Z,98.50
2023-03-27T05:08:20.588Z,98.50
2023-03-27T05:10:47.308Z,98.50
2023-03-27T05:13:14.392Z,98.50
2023-03-27T05:15:41.682Z,98.50
2023-03-27T05:18:09.050Z,98.50
2023-03-27T05:20:36.968Z,98.50
2023-03-27T05:23:04.261Z,98.50
2023-03-27T05:25:32.525Z,98.50
2023-03-27T05:28:00.697Z,98.50
2023-03-27T05:30:29.449Z,98.50
2023-03-27T05:32:59.233Z,98.50
2023-03-27T05:35:28.410Z,98.50
2023-03-27T05:37:56.233Z,98.50
2023-03-27T05:40:25.782Z,98.50
2023-03-27T05:42:53.783Z,98.50
2023-03-27T05:45:20.852Z,98.50
2023-03-27T05:47:59.265Z,98.50
2023-03-27T05:50:28.437Z,98.50
2023-03-27T05:52:56.989Z,98.50
2023-03-27T05:55:27.034Z,98.50
2023-03-27T05:57:55.041Z,98.50
2023-03-27T06:00:25.761Z,98.50
2023-03-27T06:02:57.328Z,98.50
2023-03-27T06:05:26.803Z,98.50
2023-03-27T06:07:53.878Z,98.50
2023-03-27T06:10:20.792Z,98.50
2023-03-27T06:12:50.841Z,98.50
2023-03-27T06:15:17.632Z,98.50
2023-03-27T06:17:47.957Z,98.50
2023-03-27T06:20:15.427Z,98.50
2023-03-27T06:22:45.762Z,98.50
2023-03-27T06:25:13.297Z,98.50
2023-03-27T06:27:45.652Z,98.50
2023-03-27T06:30:14.347Z,98.50
2023-03-27T06:32:52.595Z,98.50
2023-03-27T06:35:20.621Z,98.50
2023-03-27T06:37:51.273Z,98.50
2023-03-27T06:40:23.941Z,98.50
2023-03-27T06:42:59.801Z,98.50
2023-03-27T06:45:29.879Z,98.50
2023-03-27T06:48:17.064Z,98.50
2023-03-27T06:50:48.184Z,98.50
2023-03-27T06:53:26.667Z,98.50
2023-03-27T06:55:55.845Z,98.50
2023-03-27T06:58:25.099Z,98.50
2023-03-27T07:00:51.868Z,98.50
2023-03-27T07:03:21.420Z,98.50
2023-03-27T07:05:49.057Z,98.50
2023-03-27T07:08:24.408Z,98.50
2023-03-27T07:11:10.036Z,98.50
2023-03-27T07:13:38.550Z,98.50
2023-03-27T07:16:05.885Z,98.50
2023-03-27T07:18:32.797Z,98.50
2023-03-27T07:21:00.254Z,98.50
2023-03-27T07:23:27.167Z,98.50
2023-03-27T07:26:01.530Z,98.50
2023-03-27T07:28:28.263Z,98.50
2023-03-27T07:30:55.399Z,98.50
2023-03-27T07:33:22.763Z,98.50
2023-03-27T07:35:49.707Z,98.50
2023-03-27T07:38:16.851Z,98.50
2023-03-27T07:40:46.217Z,98.50
2023-03-27T07:43:13.867Z,98.50
2023-03-27T07:45:41.848Z,98.50
2023-03-27T07:48:17.517Z,98.50
2023-03-27T07:50:45.342Z,98.50
2023-03-27T07:53:32.435Z,98.50
2023-03-27T07:55:59.636Z,98.50
2023-03-27T07:58:26.899Z,98.50
2023-03-27T08:00:53.841Z,98.50
2023-03-27T08:03:21.643Z,98.50
2023-03-27T08:05:56.465Z,98.50
2023-03-27T08:08:24.560Z,98.50
2023-03-27T08:10:54.856Z,98.50
2023-03-27T08:13:21.590Z,98.50
2023-03-27T08:15:48.350Z,98.50
2023-03-27T08:18:15.064Z,98.50
2023-03-27T08:20:42.612Z,98.50
2023-03-27T08:23:09.788Z,98.50
2023-03-27T08:25:36.613Z,98.50
2023-03-27T08:28:03.442Z,98.50
2023-03-27T08:30:30.444Z,98.50
2023-03-27T08:32:58.602Z,98.50
2023-03-27T08:35:25.749Z,98.50
2023-03-27T08:37:54.043Z,98.50
2023-03-27T08:40:26.150Z,98.50
2023-03-27T08:42:57.144Z,98.50
2023-03-27T08:45:30.261Z,98.50
2023-03-27T08:48:07.471Z,98.50
2023-03-27T08:50:41.026Z,98.50
2023-03-27T08:53:19.265Z,98.50
2023-03-27T08:55:46.971Z,98.50
2023-03-27T08:58:23.251Z,98.50
2023-03-27T09:01:07.171Z,98.50
2023-03-27T09:03:40.737Z,98.50
2023-03-27T09:06:20.828Z,98.50
2023-03-27T09:08:56.749Z,98.50
2023-03-27T09:11:49.315Z,98.50
2023-03-27T09:14:32.915Z,98.50
2023-03-27T09:17:13.320Z,98.50
2023-03-27T09:19:47.980Z,98.50
2023-03-27T09:22:26.610Z,98.50
2023-03-27T09:24:58.002Z,98.50
2023-03-27T09:27:34.631Z,98.50
2023-03-27T09:30:11.020Z,98.50
2023-03-27T09:32:39.513Z,98.50
2023-03-27T09:35:06.445Z,98.50
2023-03-27T09:37:36.889Z,98.50
2023-03-27T09:40:07.764Z,98.50
2023-03-27T09:42:39.395Z,98.50
2023-03-27T09:45:10.114Z,98.50
2023-03-27T09:47:49.969Z,98.50
2023-03-27T09:50:28.395Z,98.50
2023-03-27T09:53:10.440Z,98.50
2023-03-27T09:56:05.697Z,98.50
2023-03-27T09:58:41.008Z,98.50
2023-03-27T10:01:17.243Z,98.50
2023-03-27T10:03:53.295Z,98.50
2023-03-27T10:06:44.616Z,98.50
2023-03-27T10:09:34.989Z,98.50
2023-03-27T10:12:07.939Z,98.50
2023-03-27T10:14:44.602Z,98.50
2023-03-27T10:17:40.268Z,98.50
2023-03-27T10:20:19.594Z,98.50
2023-03-27T10:22:56.184Z,98.50
2023-03-27T10:25:34.359Z,98.50
2023-03-27T10:28:15.764Z,98.50
2023-03-27T10:30:42.744Z,98.50
2023-03-27T10:33:09.572Z,98.50
2023-03-27T10:35:39.408Z,98.50
2023-03-27T10:38:14.950Z,98.50
2023-03-27T10:40:47.577Z,98.50
2023-03-27T10:43:27.856Z,98.50
2023-03-27T10:46:05.169Z,98.50
2023-03-27T10:49:02.878Z,98.50
2023-03-27T10:51:39.503Z,98.50
2023-03-27T10:54:17.142Z,98.50
2023-03-27T10:57:10.014Z,98.50
2023-03-27T10:59:44.572Z,98.50
2023-03-27T11:02:18.727Z,98.50
2023-03-27T11:04:55.114Z,98.50
2023-03-27T11:07:33.868Z,98.50
2023-03-27T11:10:24.957Z,98.50
2023-03-27T11:13:13.450Z,98.50
2023-03-27T11:15:54.221Z,98.50
2023-03-27T11:18:32.653Z,98.50
2023-03-27T11:21:03.675Z,98.50
2023-03-27T11:23:36.429Z,98.50
2023-03-27T11:26:06.383Z,98.50
2023-03-27T11:28:54.177Z,98.50
2023-03-27T11:31:44.243Z,98.50
2023-03-27T11:34:35.587Z,98.50
2023-03-27T11:37:19.838Z,98.50
2023-03-27T11:39:53.961Z,98.50
2023-03-27T11:42:28.858Z,98.50
2023-03-27T11:44:56.916Z,98.50
2023-03-27T11:47:42.726Z,98.50
2023-03-27T11:50:34.213Z,98.50
2023-03-27T11:53:09.756Z,98.50
2023-03-27T11:55:56.428Z,98.50
2023-03-27T11:58:35.812Z,98.50
2023-03-27T12:01:12.665Z,98.50
2023-03-27T12:03:59.722Z,98.50
2023-03-27T12:06:59.671Z,98.50
2023-03-27T12:10:13.049Z,98.50
2023-03-27T12:13:01.353Z,98.40
2023-03-27T12:15:50.501Z,98.50
2023-03-27T12:18:51.204Z,97.40
2023-03-27T12:22:24.091Z,98.50
2023-03-27T12:25:09.885Z,98.50
2023-03-27T12:28:01.609Z,98.50
2023-03-27T12:30:31.677Z,98.50
2023-03-27T12:33:40.425Z,98.50
2023-03-27T12:36:12.980Z,97.40
2023-03-27T12:38:42.436Z,97.10
2023-03-27T12:41:11.149Z,96.30
2023-03-27T12:43:43.795Z,94.00
2023-03-27T12:46:23.331Z,94.50
2023-03-27T12:48:54.507Z,96.60
2023-03-27T12:51:48.326Z,98.20
2023-03-27T12:54:27.207Z,98.50
2023-03-27T12:57:15.479Z,98.50
2023-03-27T13:00:10.602Z,98.50
2023-03-27T13:03:05.188Z,98.50
2023-03-27T13:05:44.565Z,98.50
2023-03-27T13:08:45.494Z,98.20
2023-03-27T13:11:23.017Z,97.00
2023-03-27T13:14:13.015Z,97.40
2023-03-27T13:16:42.671Z,97.10
2023-03-27T13:19:54.844Z,96.30
2023-03-27T13:22:24.569Z,95.60
2023-03-27T13:25:13.337Z,95.10
2023-03-27T13:27:52.379Z,93.30
2023-03-27T13:30:44.871Z,94.30
2023-03-27T13:33:24.089Z,94.90
2023-03-27T13:36:02.802Z,94.30
2023-03-27T13:38:53.206Z,93.90
2023-03-27T13:41:44.868Z,93.90
2023-03-27T13:44:20.338Z,94.00
2023-03-27T13:47:13.048Z,95.30
2023-03-27T13:50:19.951Z,98.10
2023-03-27T13:53:22.377Z,97.80
2023-03-27T13:56:01.522Z,98.50
2023-03-27T13:59:06.204Z,98.50
2023-03-27T14:01:39.374Z,96.60
2023-03-27T14:04:33.351Z,96.30
2023-03-27T14:07:12.612Z,94.60
2023-03-27T14:10:01.277Z,88.20
2023-03-27T14:12:38.240Z,88.80
2023-03-27T14:15:26.900Z,88.30
2023-03-27T14:18:02.653Z,90.70
2023-03-27T14:20:35.245Z,90.30
2023-03-27T14:23:05.633Z,90.70
2023-03-27T14:25:39.097Z,90.70
2023-03-27T14:28:10.311Z,90.30
2023-03-27T14:30:45.638Z,89.60
2023-03-27T14:33:20.321Z,90.40
2023-03-27T14:35:54.705Z,88.80
2023-03-27T14:38:26.050Z,90.10
2023-03-27T14:40:58.753Z,88.90
2023-03-27T14:43:27.739Z,88.70
2023-03-27T14:46:06.642Z,89.50
2023-03-27T14:48:40.086Z,89.10
2023-03-27T14:51:10.826Z,89.60
2023-03-27T14:53:44.010Z,90.60
2023-03-27T14:56:23.631Z,91.00
2023-03-27T14:58:54.249Z,91.00
2023-03-27T15:01:21.706Z,92.80
2023-03-27T15:03:51.578Z,93.50
2023-03-27T15:06:21.949Z,93.20
2023-03-27T15:08:53.286Z,93.00
2023-03-27T15:11:23.402Z,92.30
2023-03-27T15:13:50.215Z,92.00
2023-03-27T15:16:22.156Z,92.10
2023-03-27T15:19:09.860Z,91.60
2023-03-27T15:21:49.370Z,90.10
2023-03-27T15:24:29.708Z,90.80
2023-03-27T15:27:07.400Z,88.20
2023-03-27T15:29:53.399Z,88.30
2023-03-27T15:32:22.158Z,88.90
2023-03-27T15:34:56.701Z,90.00
2023-03-27T15:37:26.332Z,89.70
2023-03-27T15:40:13.554Z,89.10
2023-03-27T15:42:53.969Z,88.90
2023-03-27T15:45:23.389Z,89.10
2023-03-27T15:48:02.946Z,90.70
2023-03-27T15:50:29.865Z,91.30
2023-03-27T15:52:58.602Z,91.00
2023-03-27T15:55:55.366Z,92.20
2023-03-27T15:58:49.532Z,95.80
2023-03-27T16:01:22.879Z,96.30
2023-03-27T16:03:51.597Z,95.50
2023-03-27T16:06:33.691Z,93.30
2023-03-27T16:09:01.576Z,93.80
2023-03-27T16:11:47.114Z,93.80
2023-03-27T16:14:43.975Z,94.60
2023-03-27T16:17:19.760Z,94.50
2023-03-27T16:19:57.015Z,94.10
2023-03-27T16:22:32.930Z,94.60
2023-03-27T16:25:01.364Z,98.50
2023-03-27T16:27:34.562Z,98.50
2023-03-27T16:30:01.424Z,98.50
2023-03-27T16:32:28.217Z,98.50
2023-03-27T16:34:55.042Z,98.50
2023-03-27T16:37:24.992Z,98.50
2023-03-27T16:39:52.830Z,98.50
2023-03-27T16:42:25.864Z,98.50
2023-03-27T16:44:53.400Z,98.50
2023-03-27T16:47:20.617Z,98.50
2023-03-27T16:49:56.210Z,98.50
2023-03-27T16:52:29.941Z,98.50
2023-03-27T16:54:56.690Z,98.50
2023-03-27T16:57:24.659Z,98.50
2023-03-27T16:59:51.668Z,98.50
2023-03-27T17:02:18.444Z,98.50
2023-03-27T17:04:45.597Z,98.50
2023-03-27T17:07:12.725Z,98.50
2023-03-27T17:09:39.413Z,98.50
2023-03-27T17:12:06.515Z,98.50
2023-03-27T17:14:33.283Z,98.50
2023-03-27T17:17:00.464Z,98.50
2023-03-27T17:19:27.165Z,98.50
2023-03-27T17:21:53.845Z,98.50
2023-03-27T17:24:20.532Z,98.50
2023-03-27T17:26:47.270Z,98.50
2023-03-27T17:29:14.736Z,98.50
2023-03-27T17:31:41.521Z,98.50
2023-03-27T17:34:08.262Z,98.50
2023-03-27T17:36:43.269Z,98.50
2023-03-27T17:39:16.760Z,98.50
2023-03-27T17:41:43.450Z,98.50
2023-03-27T17:44:11.958Z,98.50
2023-03-27T17:46:38.880Z,98.50
2023-03-27T17:49:05.797Z,98.50
2023-03-27T17:51:34.208Z,98.50
2023-03-27T17:54:01.488Z,98.50
2023-03-27T17:56:28.204Z,98.50
2023-03-27T17:58:56.295Z,98.50
2023-03-27T18:01:24.204Z,98.50
2023-03-27T18:03:51.823Z,98.50
2023-03-27T18:06:18.911Z,98.50
2023-03-27T18:08:46.739Z,98.50
2023-03-27T18:11:16.159Z,98.50
2023-03-27T18:13:43.016Z,98.50
2023-03-27T18:16:10.900Z,98.50
2023-03-27T18:18:39.108Z,98.50
2023-03-27T18:21:06.639Z,98.50
2023-03-27T18:23:35.160Z,98.50
2023-03-27T18:26:07.104Z,98.50
2023-03-27T18:28:34.478Z,98.50
2023-03-27T18:31:03.565Z,98.50
2023-03-27T18:33:30.729Z,98.50
2023-03-27T18:35:58.436Z,98.50
2023-03-27T18:38:27.258Z,98.50
2023-03-27T18:40:56.098Z,98.50
2023-03-27T18:43:23.725Z,98.50
2023-03-27T18:46:02.275Z,98.50
2023-03-27T18:48:30.972Z,98.50
2023-03-27T18:51:02.994Z,98.50
2023-03-27T18:53:30.823Z,98.50
2023-03-27T18:55:58.672Z,98.50
2023-03-27T18:58:27.800Z,98.50
2023-03-27T19:00:58.272Z,98.50
2023-03-27T19:03:26.972Z,98.50
2023-03-27T19:05:53.749Z,98.50
2023-03-27T19:08:21.827Z,98.50
2023-03-27T19:10:49.218Z,98.50
2023-03-27T19:13:16.117Z,98.50
2023-03-27T19:15:43.157Z,98.50
2023-03-27T19:18:10.261Z,98.50
2023-03-27T19:20:37.006Z,98.50
2023-03-27T19:23:04.411Z,98.50
2023-03-27T19:25:34.028Z,98.50
2023-03-27T19:28:02.349Z,98.50
2023-03-27T19:30:29.436Z,98.50
2023-03-27T19:32:58.242Z,98.50
2023-03-27T19:35:26.523Z,98.50
2023-03-27T19:37:54.286Z,98.50
2023-03-27T19:40:21.541Z,98.50
2023-03-27T19:42:48.413Z,98.50
2023-03-27T19:45:15.318Z,98.50
2023-03-27T19:47:42.323Z,98.50
2023-03-27T19:50:10.140Z,98.50
2023-03-27T19:52:37.550Z,98.50
2023-03-27T19:55:04.859Z,98.50
2023-03-27T19:57:31.536Z,98.50
2023-03-27T19:59:58.281Z,98.50
2023-03-27T20:02:25.209Z,98.50
2023-03-27T20:04:52.069Z,98.50
2023-03-27T20:07:18.825Z,98.50
2023-03-27T20:09:45.689Z,98.50
2023-03-27T20:12:12.920Z,98.50
2023-03-27T20:14:39.632Z,98.50
2023-03-27T20:17:12.226Z,98.50
2023-03-27T20:19:48.787Z,98.50
2023-03-27T20:22:20.655Z,98.50
2023-03-27T20:24:48.780Z,98.50
2023-03-27T20:27:19.636Z,98.50
2023-03-27T20:29:47.386Z,98.50
2023-03-27T20:32:14.587Z,98.50
2023-03-27T20:34:41.397Z,98.50
2023-03-27T20:37:11.983Z,98.50
2023-03-27T20:39:47.221Z,98.50
2023-03-27T20:42:16.968Z,98.50
2023-03-27T20:44:45.060Z,98.50
2023-03-27T20:47:12.929Z,98.50
2023-03-27T20:49:42.833Z,98.50
2023-03-27T20:52:11.848Z,98.50
2023-03-27T20:54:39.071Z,98.50
2023-03-27T20:57:06.452Z,98.50
2023-03-27T20:59:33.317Z,98.50
2023-03-27T21:02:00.892Z,98.50
2023-03-27T21:04:28.867Z,98.50
2023-03-27T21:06:55.761Z,98.50
2023-03-27T21:09:26.957Z,98.50
2023-03-27T21:11:55.108Z,98.50
2023-03-27T21:14:22.071Z,98.50
2023-03-27T21:16:48.868Z,98.50
2023-03-27T21:19:15.873Z,98.50
2023-03-27T21:21:42.735Z,98.50
2023-03-27T21:24:09.532Z,98.50
2023-03-27T21:26:36.625Z,98.50
2023-03-27T21:29:03.820Z,98.50
2023-03-27T21:31:30.908Z,98.50
2023-03-27T21:33:57.858Z,98.50
2023-03-27T21:36:26.448Z,98.50
2023-03-27T21:38:54.763Z,98.50
2023-03-27T21:41:21.729Z,98.50
2023-03-27T21:43:48.614Z,98.50
2023-03-27T21:46:15.418Z,98.50
2023-03-27T21:48:44.608Z,98.50
2023-03-27T21:51:11.471Z,98.50
2023-03-27T21:53:38.324Z,98.50
2023-03-27T21:56:05.569Z,98.50
2023-03-27T21:58:32.310Z,98.50
2023-03-27T22:01:00.006Z,98.50
2023-03-27T22:03:27.990Z,98.50
2023-03-27T22:06:10.355Z,98.50
2023-03-27T22:08:39.984Z,98.50
2023-03-27T22:11:06.985Z,98.50
2023-03-27T22:13:37.783Z,98.50
2023-03-27T22:16:13.824Z,98.50
2023-03-27T22:18:41.351Z,98.50
2023-03-27T22:21:23.162Z,98.50
2023-03-27T22:23:51.006Z,98.50
2023-03-27T22:26:27.030Z,98.50
2023-03-27T22:28:53.849Z,98.50
2023-03-27T22:31:21.453Z,98.50
2023-03-27T22:33:48.814Z,98.50
2023-03-27T22:36:15.724Z,98.50
2023-03-27T22:38:43.298Z,98.50
2023-03-27T22:41:12.146Z,98.50
2023-03-27T22:43:39.276Z,98.50
2023-03-27T22:46:07.027Z,98.50
2023-03-27T22:48:34.426Z,98.50
2023-03-27T22:51:01.867Z,98.50
2023-03-27T22:53:28.709Z,98.50
2023-03-27T22:55:56.794Z,98.50
2023-03-27T22:58:24.579Z,98.50
2023-03-27T23:00:53.391Z,98.50
2023-03-27T23:03:21.334Z,98.50
2023-03-27T23:05:49.825Z,98.50
2023-03-27T23:08:18.108Z,98.50
2023-03-27T23:10:45.746Z,98.50
2023-03-27T23:13:12.851Z,98.50
2023-03-27T23:15:39.560Z,98.50
2023-03-27T23:18:06.374Z,98.50
2023-03-27T23:20:33.253Z,98.50
2023-03-27T23:23:00.471Z,98.50
2023-03-27T23:25:27.218Z,98.50
2023-03-27T23:27:53.998Z,98.50
2023-03-27T23:30:20.839Z,98.50
2023-03-27T23:32:47.518Z,98.50
2023-03-27T23:35:14.366Z,98.50
2023-03-27T23:37:41.210Z,98.50
2023-03-27T23:40:08.710Z,98.50
2023-03-27T23:42:35.429Z,98.50
2023-03-27T23:45:02.095Z,98.50
2023-03-27T23:47:28.837Z,98.50
2023-03-27T23:49:55.729Z,98.50
2023-03-27T23:52:25.424Z,98.50
2023-03-27T23:54:52.144Z,98.50
2023-03-27T23:57:19.145Z,98.50
2023-03-27T23:59:46.035Z,98.50
